Long Buckby, United Kingdom
Current Conditions -  °F | °C
As of 9:20 AM on Sunday 23 Nov 2014 (Local Time) from EGBE Reporting Station
Light Rain Light Rain  
Wind Chill: 44°   Ceiling: 3300
Heat Index: 46°   Visibility: 6mi
Dew Point: 45°   Wind: 5mph
Humidity: 93%   Direction: 340°NNW
Pressure: 30.03"   Gusts: NA
Location:  52.3°N, 1.08°W
Report Text: EGBE 230920Z 34004KT 9000 -RA BKN033 08/07 Q1017
Loading
Personal Weather Stations






























Interactive Weather Map New forecast layout! Learn more

10-Day Weather Forecast

Advertisements
Track Severe Weather on mobile